AAL1551 PAKP-UMMS
Flight info
| Callsign | AAL1551 |
|---|---|
| Flight time | N/A |
| Altitude | 34000 |
| Route | OTZ B244 FRENK/K0917F370 M180 VIKRI/K0920F340 M180 PEMID T454 NISEL M182 BEKMI R351 LURET G7 TIRBU/K0920F370 G7 BAGET/K0922F340 G7 TUMOK M131 NRM L168 RIGNI/K0917F350 M58 KUPUK/K0920F340 M58 ARGIP T821 DISUP T693 AGMUT/K0909F330 N743 AGNEF |
| Aircraft | B77W/H-SDE1E2E3FGHIJ2J3J4J5M1RWXY/LB1D1 |
Departure
| Time | N/A |
|---|---|
| Airport | Anaktuvuk Pass Airport (PAKP) |
Arrival
| Time | 2026-05-03 23:56 |
|---|---|
| Airport | Minsk National Airport (UMMS) |
| Time | Latitude | Longitude | Altitude | Speed | Heading |
|---|---|---|---|---|---|
| 2026-05-03 20:15 | 69.79295 | 61.65649 | 37864 ft | 458 kts | 230° |
| 2026-05-03 20:15 | 69.75341 | 61.51269 | 37870 ft | 456 kts | 238° |
| 2026-05-03 20:16 | 69.72088 | 61.35568 | 37874 ft | 455 kts | 240° |
| 2026-05-03 20:16 | 69.69737 | 61.24193 | 37893 ft | 455 kts | 239° |
| 2026-05-03 20:17 | 69.66470 | 61.08615 | 37903 ft | 455 kts | 239° |
| 2026-05-03 20:17 | 69.63732 | 60.95688 | 37879 ft | 455 kts | 239° |
| 2026-05-03 20:18 | 69.59877 | 60.77624 | 37904 ft | 456 kts | 239° |
| 2026-05-03 20:18 | 69.56549 | 60.62135 | 37901 ft | 456 kts | 239° |
| 2026-05-03 20:19 | 69.53753 | 60.49207 | 37904 ft | 456 kts | 239° |
| 2026-05-03 20:19 | 69.50426 | 60.33878 | 37896 ft | 456 kts | 239° |
| 2026-05-03 20:20 | 69.47081 | 60.18489 | 37910 ft | 457 kts | 239° |
| 2026-05-03 20:20 | 69.43721 | 60.03128 | 37906 ft | 457 kts | 239° |
| 2026-05-03 20:21 | 69.40349 | 59.87828 | 37902 ft | 457 kts | 238° |
| 2026-05-03 20:21 | 69.36964 | 59.72583 | 37911 ft | 457 kts | 238° |
| 2026-05-03 20:22 | 69.33559 | 59.57356 | 37917 ft | 457 kts | 238° |
| 2026-05-03 20:22 | 69.30165 | 59.42282 | 37923 ft | 456 kts | 238° |
| 2026-05-03 20:23 | 69.26743 | 59.27186 | 37922 ft | 456 kts | 238° |
| 2026-05-03 20:23 | 69.23303 | 59.12110 | 37925 ft | 456 kts | 238° |
| 2026-05-03 20:24 | 69.19853 | 58.97099 | 37927 ft | 456 kts | 238° |
| 2026-05-03 20:24 | 69.16311 | 58.82315 | 37929 ft | 456 kts | 237° |
| 2026-05-03 20:25 | 69.12709 | 58.67669 | 37941 ft | 456 kts | 237° |
| 2026-05-03 20:25 | 69.09117 | 58.53096 | 37936 ft | 456 kts | 237° |
| 2026-05-03 20:26 | 69.05530 | 58.38581 | 37945 ft | 455 kts | 237° |
| 2026-05-03 20:26 | 69.01896 | 58.23961 | 37937 ft | 455 kts | 237° |
| 2026-05-03 20:27 | 68.98300 | 58.09592 | 37947 ft | 455 kts | 236° |
| 2026-05-03 20:27 | 68.94662 | 57.95148 | 37940 ft | 454 kts | 236° |
| 2026-05-03 20:28 | 68.91024 | 57.80795 | 37952 ft | 454 kts | 236° |
| 2026-05-03 20:28 | 68.87435 | 57.66341 | 37951 ft | 453 kts | 237° |
| 2026-05-03 20:29 | 68.83888 | 57.51888 | 37955 ft | 453 kts | 237° |
| 2026-05-03 20:29 | 68.80334 | 57.37545 | 37957 ft | 452 kts | 237° |
| 2026-05-03 20:30 | 68.76758 | 57.23252 | 37961 ft | 452 kts | 237° |
| 2026-05-03 20:30 | 68.73194 | 57.09092 | 37960 ft | 451 kts | 237° |
| 2026-05-03 20:31 | 68.69609 | 56.94926 | 37957 ft | 450 kts | 237° |
| 2026-05-03 20:31 | 68.66034 | 56.80789 | 37972 ft | 449 kts | 237° |
| 2026-05-03 20:32 | 68.62464 | 56.66740 | 37968 ft | 449 kts | 236° |
| 2026-05-03 20:32 | 68.58901 | 56.52809 | 37970 ft | 448 kts | 236° |
| 2026-05-03 20:33 | 68.55308 | 56.38857 | 37975 ft | 448 kts | 236° |
| 2026-05-03 20:33 | 68.51707 | 56.24966 | 37978 ft | 448 kts | 236° |
| 2026-05-03 20:34 | 68.48096 | 56.11124 | 37984 ft | 448 kts | 236° |
| 2026-05-03 20:34 | 68.44459 | 55.97269 | 37983 ft | 449 kts | 236° |
| 2026-05-03 20:35 | 68.40809 | 55.83455 | 37987 ft | 450 kts | 236° |
| 2026-05-03 20:35 | 68.37151 | 55.69695 | 37992 ft | 451 kts | 236° |
| 2026-05-03 20:36 | 68.33473 | 55.55946 | 37984 ft | 451 kts | 235° |
| 2026-05-03 20:36 | 68.29772 | 55.42199 | 37988 ft | 452 kts | 235° |
| 2026-05-03 20:37 | 68.26048 | 55.28454 | 37990 ft | 453 kts | 235° |
| 2026-05-03 20:37 | 68.22321 | 55.14771 | 37991 ft | 453 kts | 235° |
| 2026-05-03 20:38 | 68.18605 | 55.01221 | 37993 ft | 453 kts | 235° |
| 2026-05-03 20:38 | 68.14851 | 54.87622 | 37999 ft | 453 kts | 235° |
| 2026-05-03 20:39 | 68.11085 | 54.74044 | 37999 ft | 453 kts | 235° |
| 2026-05-03 20:39 | 68.07309 | 54.60507 | 38005 ft | 453 kts | 235° |
| 2026-05-03 20:40 | 68.03523 | 54.47018 | 38003 ft | 453 kts | 235° |
| 2026-05-03 20:40 | 67.99735 | 54.33602 | 38006 ft | 452 kts | 235° |
| 2026-05-03 20:41 | 67.95935 | 54.20220 | 38009 ft | 452 kts | 234° |
| 2026-05-03 20:41 | 67.92131 | 54.06905 | 38007 ft | 451 kts | 234° |
| 2026-05-03 20:42 | 67.88310 | 53.93704 | 38007 ft | 451 kts | 234° |
| 2026-05-03 20:42 | 67.84465 | 53.80569 | 38027 ft | 450 kts | 234° |
| 2026-05-03 20:43 | 67.80643 | 53.67569 | 38023 ft | 450 kts | 234° |
| 2026-05-03 20:43 | 67.76793 | 53.54535 | 38025 ft | 449 kts | 234° |
| 2026-05-03 20:44 | 67.72937 | 53.41556 | 38005 ft | 449 kts | 234° |
| 2026-05-03 20:44 | 67.69079 | 53.28636 | 38021 ft | 448 kts | 234° |
| 2026-05-03 20:45 | 67.65321 | 53.15548 | 37999 ft | 446 kts | 239° |
| 2026-05-03 20:45 | 67.62371 | 53.01263 | 38025 ft | 444 kts | 247° |
| 2026-05-03 20:46 | 67.60158 | 52.86265 | 38025 ft | 444 kts | 250° |
| 2026-05-03 20:46 | 67.57997 | 52.71104 | 38020 ft | 444 kts | 250° |
| 2026-05-03 20:47 | 67.55798 | 52.55954 | 38023 ft | 444 kts | 250° |
| 2026-05-03 20:47 | 67.53573 | 52.40854 | 38017 ft | 445 kts | 250° |
| 2026-05-03 20:48 | 67.51332 | 52.25779 | 38020 ft | 445 kts | 250° |
| 2026-05-03 20:48 | 67.49084 | 52.10755 | 38021 ft | 445 kts | 250° |
| 2026-05-03 20:49 | 67.46796 | 51.95745 | 38023 ft | 445 kts | 249° |
| 2026-05-03 20:49 | 67.44438 | 51.80930 | 38023 ft | 445 kts | 248° |
| 2026-05-03 20:50 | 67.42050 | 51.66072 | 38019 ft | 444 kts | 248° |
| 2026-05-03 20:50 | 67.39665 | 51.51273 | 38024 ft | 444 kts | 248° |
| 2026-05-03 20:51 | 67.37268 | 51.36484 | 38026 ft | 443 kts | 248° |
| 2026-05-03 20:51 | 67.34859 | 51.21729 | 38025 ft | 443 kts | 248° |
| 2026-05-03 20:52 | 67.32447 | 51.07053 | 38021 ft | 443 kts | 248° |
| 2026-05-03 20:52 | 67.30021 | 50.92395 | 38021 ft | 442 kts | 248° |
| 2026-05-03 20:53 | 67.27627 | 50.77621 | 38022 ft | 442 kts | 249° |
| 2026-05-03 20:53 | 67.25274 | 50.63046 | 38019 ft | 442 kts | 248° |
| 2026-05-03 20:54 | 67.22893 | 50.48435 | 38023 ft | 441 kts | 248° |
| 2026-05-03 20:54 | 67.19287 | 50.26565 | 38019 ft | 441 kts | 248° |
| 2026-05-03 20:55 | 67.16866 | 50.12031 | 38023 ft | 441 kts | 248° |
| 2026-05-03 20:55 | 67.14436 | 49.97549 | 38021 ft | 441 kts | 248° |
| 2026-05-03 20:56 | 67.12004 | 49.83163 | 38022 ft | 440 kts | 248° |
| 2026-05-03 20:56 | 67.09539 | 49.68684 | 38022 ft | 440 kts | 248° |
| 2026-05-03 20:57 | 67.07087 | 49.54386 | 38022 ft | 440 kts | 247° |
| 2026-05-03 20:57 | 67.04613 | 49.40068 | 38017 ft | 439 kts | 247° |
| 2026-05-03 20:58 | 67.02123 | 49.25758 | 38016 ft | 439 kts | 247° |
| 2026-05-03 20:58 | 66.99628 | 49.11520 | 38017 ft | 439 kts | 247° |
| 2026-05-03 20:59 | 66.97121 | 48.97313 | 38022 ft | 438 kts | 247° |
| 2026-05-03 20:59 | 66.94603 | 48.83147 | 38022 ft | 438 kts | 246° |
| 2026-05-03 21:00 | 66.92909 | 48.73671 | 38016 ft | 438 kts | 246° |
| 2026-05-03 21:00 | 66.89958 | 48.57270 | 38019 ft | 437 kts | 246° |
| 2026-05-03 21:01 | 66.87414 | 48.43222 | 38013 ft | 437 kts | 246° |
| 2026-05-03 21:01 | 66.84858 | 48.29264 | 38014 ft | 437 kts | 246° |
| 2026-05-03 21:02 | 66.82274 | 48.15299 | 38020 ft | 437 kts | 246° |
| 2026-05-03 21:02 | 66.79680 | 48.01353 | 38013 ft | 437 kts | 246° |
| 2026-05-03 21:03 | 66.77075 | 47.87415 | 38010 ft | 437 kts | 245° |
| 2026-05-03 21:03 | 66.74369 | 47.73604 | 38012 ft | 438 kts | 241° |
| 2026-05-03 21:04 | 66.71191 | 47.60477 | 38012 ft | 438 kts | 240° |
| 2026-05-03 21:04 | 66.68205 | 47.48285 | 38009 ft | 438 kts | 240° |
| 2026-05-03 21:05 | 66.65110 | 47.35651 | 38009 ft | 439 kts | 240° |
| 2026-05-03 21:05 | 66.61879 | 47.22489 | 38008 ft | 439 kts | 240° |
| 2026-05-03 21:06 | 66.58672 | 47.09496 | 38004 ft | 439 kts | 239° |
| 2026-05-03 21:06 | 66.55439 | 46.96473 | 38006 ft | 440 kts | 239° |
| 2026-05-03 21:07 | 66.52187 | 46.83454 | 38008 ft | 439 kts | 239° |
| 2026-05-03 21:07 | 66.48928 | 46.70485 | 38006 ft | 439 kts | 239° |
| 2026-05-03 21:08 | 66.45659 | 46.57554 | 38001 ft | 439 kts | 239° |
| 2026-05-03 21:08 | 66.42382 | 46.44664 | 38008 ft | 439 kts | 239° |
| 2026-05-03 21:09 | 66.39094 | 46.31806 | 38005 ft | 439 kts | 239° |
| 2026-05-03 21:09 | 66.35803 | 46.19014 | 38006 ft | 439 kts | 239° |
| 2026-05-03 21:10 | 66.32492 | 46.06216 | 38003 ft | 439 kts | 239° |
| 2026-05-03 21:10 | 66.29180 | 45.93488 | 38004 ft | 438 kts | 239° |
| 2026-05-03 21:11 | 66.25850 | 45.80767 | 38000 ft | 438 kts | 238° |
| 2026-05-03 21:11 | 66.22680 | 45.68720 | 38008 ft | 438 kts | 238° |
| 2026-05-03 21:12 | 66.19413 | 45.56369 | 38007 ft | 438 kts | 238° |
| 2026-05-03 21:12 | 66.16076 | 45.43819 | 38004 ft | 438 kts | 238° |
| 2026-05-03 21:13 | 66.12807 | 45.31614 | 38008 ft | 438 kts | 238° |
| 2026-05-03 21:13 | 66.09412 | 45.19050 | 38006 ft | 438 kts | 238° |
| 2026-05-03 21:14 | 66.06022 | 45.06571 | 38003 ft | 438 kts | 238° |
| 2026-05-03 21:14 | 66.02625 | 44.94123 | 38004 ft | 438 kts | 238° |
| 2026-05-03 21:15 | 65.99235 | 44.81768 | 38009 ft | 438 kts | 238° |
| 2026-05-03 21:15 | 65.95871 | 44.69573 | 38011 ft | 438 kts | 238° |
| 2026-05-03 21:16 | 65.92512 | 44.57463 | 38012 ft | 439 kts | 238° |
| 2026-05-03 21:16 | 65.89095 | 44.45211 | 38014 ft | 439 kts | 237° |
| 2026-05-03 21:17 | 65.86303 | 44.35239 | 38012 ft | 439 kts | 237° |
| 2026-05-03 21:17 | 65.82212 | 44.20886 | 38013 ft | 439 kts | 236° |
| 2026-05-03 21:18 | 65.78585 | 44.08873 | 38015 ft | 440 kts | 236° |
| 2026-05-03 21:18 | 65.74935 | 43.96902 | 38013 ft | 440 kts | 236° |
| 2026-05-03 21:19 | 65.71298 | 43.84961 | 38022 ft | 440 kts | 236° |
| 2026-05-03 21:19 | 65.67644 | 43.72991 | 38018 ft | 440 kts | 236° |
| 2026-05-03 21:20 | 65.63984 | 43.61064 | 38014 ft | 440 kts | 236° |
| 2026-05-03 21:20 | 65.60312 | 43.49161 | 38019 ft | 441 kts | 235° |
| 2026-05-03 21:21 | 65.56633 | 43.37298 | 38024 ft | 441 kts | 235° |
| 2026-05-03 21:21 | 65.52965 | 43.25530 | 38025 ft | 441 kts | 235° |
| 2026-05-03 21:22 | 65.49258 | 43.13733 | 38021 ft | 441 kts | 235° |
| 2026-05-03 21:22 | 65.45532 | 43.01960 | 38031 ft | 442 kts | 235° |
| 2026-05-03 21:23 | 65.41797 | 42.90207 | 38036 ft | 442 kts | 235° |
| 2026-05-03 21:23 | 65.38054 | 42.78475 | 38035 ft | 442 kts | 235° |
| 2026-05-03 21:24 | 65.34245 | 42.66989 | 38031 ft | 444 kts | 231° |
| 2026-05-03 21:24 | 65.30099 | 42.56016 | 38031 ft | 444 kts | 231° |
| 2026-05-03 21:25 | 65.25952 | 42.45073 | 38026 ft | 445 kts | 231° |
| 2026-05-03 21:25 | 65.21795 | 42.34090 | 38024 ft | 445 kts | 231° |
| 2026-05-03 21:26 | 65.17664 | 42.23115 | 38044 ft | 445 kts | 231° |
| 2026-05-03 21:26 | 65.13597 | 42.11995 | 38046 ft | 445 kts | 232° |
| 2026-05-03 21:27 | 65.09525 | 42.00897 | 38037 ft | 445 kts | 232° |
| 2026-05-03 21:27 | 65.05451 | 41.89894 | 38042 ft | 446 kts | 231° |
| 2026-05-03 21:28 | 65.01346 | 41.78874 | 38040 ft | 446 kts | 231° |
| 2026-05-03 21:28 | 64.97219 | 41.67848 | 38040 ft | 447 kts | 231° |
| 2026-05-03 21:29 | 64.93097 | 41.56885 | 38039 ft | 447 kts | 231° |
| 2026-05-03 21:29 | 64.88957 | 41.45932 | 38042 ft | 447 kts | 231° |
| 2026-05-03 21:30 | 64.85000 | 41.35627 | 38043 ft | 448 kts | 231° |
| 2026-05-03 21:30 | 64.80754 | 41.24646 | 38043 ft | 448 kts | 231° |
| 2026-05-03 21:31 | 64.76551 | 41.13808 | 38047 ft | 448 kts | 231° |
| 2026-05-03 21:31 | 64.72347 | 41.03011 | 38048 ft | 449 kts | 231° |
| 2026-05-03 21:32 | 64.68137 | 40.92250 | 38052 ft | 449 kts | 231° |
| 2026-05-03 21:32 | 64.63905 | 40.81484 | 38044 ft | 449 kts | 230° |
| 2026-05-03 21:33 | 64.59715 | 40.70678 | 38051 ft | 448 kts | 233° |
| 2026-05-03 21:33 | 64.56021 | 40.59032 | 38051 ft | 446 kts | 237° |
| 2026-05-03 21:34 | 64.52400 | 40.47416 | 38047 ft | 447 kts | 236° |
| 2026-05-03 21:34 | 64.48729 | 40.35771 | 38044 ft | 447 kts | 236° |
| 2026-05-03 21:35 | 64.45040 | 40.24160 | 38050 ft | 447 kts | 236° |
| 2026-05-03 21:35 | 64.41344 | 40.12585 | 38049 ft | 447 kts | 236° |
| 2026-05-03 21:36 | 64.37630 | 40.01010 | 38050 ft | 447 kts | 236° |
| 2026-05-03 21:36 | 64.34523 | 39.91367 | 38052 ft | 447 kts | 236° |
| 2026-05-03 21:37 | 64.30810 | 39.79941 | 38054 ft | 448 kts | 236° |
| 2026-05-03 21:37 | 64.27036 | 39.68431 | 38053 ft | 448 kts | 236° |
| 2026-05-03 21:38 | 64.23271 | 39.56998 | 38056 ft | 448 kts | 235° |
| 2026-05-03 21:38 | 64.19501 | 39.45596 | 38076 ft | 448 kts | 235° |
| 2026-05-03 21:39 | 64.15730 | 39.34245 | 38065 ft | 448 kts | 235° |
| 2026-05-03 21:39 | 64.11942 | 39.22901 | 38062 ft | 448 kts | 235° |
| 2026-05-03 21:40 | 64.08155 | 39.11609 | 38062 ft | 447 kts | 235° |
| 2026-05-03 21:40 | 64.04378 | 39.00418 | 38057 ft | 447 kts | 235° |
| 2026-05-03 21:41 | 64.00566 | 38.89187 | 38054 ft | 447 kts | 235° |
| 2026-05-03 21:41 | 63.96746 | 38.77980 | 38043 ft | 447 kts | 235° |
| 2026-05-03 21:42 | 63.92917 | 38.66799 | 38045 ft | 447 kts | 235° |
| 2026-05-03 21:42 | 63.89105 | 38.55719 | 38048 ft | 448 kts | 234° |
| 2026-05-03 21:43 | 63.85256 | 38.44585 | 38049 ft | 448 kts | 234° |
| 2026-05-03 21:43 | 63.81393 | 38.33468 | 38044 ft | 448 kts | 234° |
| 2026-05-03 21:44 | 63.77527 | 38.22397 | 38046 ft | 449 kts | 234° |
| 2026-05-03 21:44 | 63.73644 | 38.11331 | 38046 ft | 449 kts | 234° |
| 2026-05-03 21:45 | 63.69888 | 38.00679 | 38045 ft | 449 kts | 234° |
| 2026-05-03 21:45 | 63.66001 | 37.89709 | 38046 ft | 450 kts | 234° |
| 2026-05-03 21:46 | 63.62064 | 37.78652 | 38046 ft | 450 kts | 234° |
| 2026-05-03 21:46 | 63.58169 | 37.67764 | 38050 ft | 450 kts | 234° |
| 2026-05-03 21:47 | 63.54238 | 37.56832 | 38052 ft | 450 kts | 234° |
| 2026-05-03 21:47 | 63.50305 | 37.45943 | 38050 ft | 450 kts | 234° |
| 2026-05-03 21:48 | 63.46355 | 37.35060 | 38048 ft | 450 kts | 234° |
| 2026-05-03 21:48 | 63.42401 | 37.24212 | 38052 ft | 450 kts | 234° |
| 2026-05-03 21:49 | 63.38435 | 37.13401 | 38054 ft | 450 kts | 234° |
| 2026-05-03 21:49 | 63.34456 | 37.02604 | 38056 ft | 450 kts | 234° |
| 2026-05-03 21:50 | 63.30474 | 36.91846 | 38057 ft | 451 kts | 233° |
| 2026-05-03 21:50 | 63.26501 | 36.81151 | 38057 ft | 451 kts | 233° |
| 2026-05-03 21:51 | 63.22496 | 36.70430 | 38060 ft | 451 kts | 233° |
| 2026-05-03 21:51 | 63.18048 | 36.60422 | 38064 ft | 455 kts | 225° |
| 2026-05-03 21:52 | 63.13323 | 36.51130 | 38057 ft | 455 kts | 225° |
| 2026-05-03 21:52 | 63.08610 | 36.41836 | 38056 ft | 454 kts | 226° |
| 2026-05-03 21:53 | 63.03931 | 36.32591 | 38062 ft | 454 kts | 226° |
| 2026-05-03 21:53 | 62.99226 | 36.23325 | 38061 ft | 454 kts | 226° |
| 2026-05-03 21:54 | 62.94503 | 36.14066 | 38064 ft | 454 kts | 226° |
| 2026-05-03 21:54 | 62.89786 | 36.04858 | 38061 ft | 454 kts | 225° |
| 2026-05-03 21:55 | 62.85059 | 35.95642 | 38063 ft | 453 kts | 226° |
| 2026-05-03 21:55 | 62.80340 | 35.86364 | 38068 ft | 453 kts | 226° |
| 2026-05-03 21:56 | 62.75668 | 35.77202 | 38066 ft | 454 kts | 226° |
| 2026-05-03 21:56 | 62.70958 | 35.68017 | 38079 ft | 454 kts | 226° |
| 2026-05-03 21:57 | 62.66238 | 35.58863 | 38076 ft | 454 kts | 225° |
| 2026-05-03 21:57 | 62.61511 | 35.49736 | 38065 ft | 454 kts | 225° |
| 2026-05-03 21:58 | 62.56781 | 35.40641 | 38063 ft | 454 kts | 225° |
| 2026-05-03 21:58 | 62.52040 | 35.31567 | 38068 ft | 454 kts | 225° |
| 2026-05-03 21:59 | 62.47327 | 35.22583 | 38069 ft | 454 kts | 225° |
| 2026-05-03 21:59 | 62.42585 | 35.13580 | 38068 ft | 454 kts | 225° |
| 2026-05-03 22:00 | 62.37818 | 35.04610 | 38075 ft | 454 kts | 225° |
| 2026-05-03 22:00 | 62.33007 | 34.95754 | 38070 ft | 455 kts | 224° |
| 2026-05-03 22:01 | 62.30600 | 34.91349 | 37803 ft | 455 kts | 224° |
| 2026-05-03 22:01 | 62.28189 | 34.86942 | 38078 ft | 454 kts | 224° |
| 2026-05-03 22:01 | 62.23372 | 34.78147 | 38076 ft | 455 kts | 225° |
| 2026-05-03 22:02 | 62.18551 | 34.69371 | 38079 ft | 455 kts | 224° |
| 2026-05-03 22:02 | 62.13711 | 34.60598 | 38084 ft | 455 kts | 224° |
| 2026-05-03 22:03 | 62.08870 | 34.51862 | 38084 ft | 455 kts | 224° |
| 2026-05-03 22:03 | 62.04020 | 34.43145 | 38103 ft | 456 kts | 224° |
| 2026-05-03 22:04 | 61.99169 | 34.34465 | 38106 ft | 456 kts | 224° |
| 2026-05-03 22:04 | 61.94302 | 34.25789 | 38099 ft | 456 kts | 224° |
| 2026-05-03 22:05 | 61.89524 | 34.17057 | 38098 ft | 453 kts | 229° |
| 2026-05-03 22:05 | 61.85406 | 34.07068 | 38102 ft | 448 kts | 237° |
| 2026-05-03 22:06 | 61.81658 | 33.96476 | 38101 ft | 449 kts | 237° |
| 2026-05-03 22:06 | 61.77894 | 33.85939 | 38105 ft | 449 kts | 236° |
| 2026-05-03 22:07 | 61.74113 | 33.75458 | 38105 ft | 449 kts | 236° |
| 2026-05-03 22:07 | 61.70312 | 33.64989 | 38111 ft | 449 kts | 236° |
| 2026-05-03 22:08 | 61.66514 | 33.54573 | 38117 ft | 449 kts | 236° |
| 2026-05-03 22:08 | 61.62706 | 33.44174 | 38112 ft | 448 kts | 236° |
| 2026-05-03 22:09 | 61.58890 | 33.33799 | 38117 ft | 448 kts | 236° |
| 2026-05-03 22:10 | 61.53160 | 33.18306 | 38125 ft | 448 kts | 236° |
| 2026-05-03 22:10 | 61.49336 | 33.08021 | 38129 ft | 448 kts | 236° |
| 2026-05-03 22:11 | 61.45186 | 32.98245 | 38126 ft | 452 kts | 228° |
| 2026-05-03 22:11 | 61.40631 | 32.89197 | 38136 ft | 452 kts | 227° |
| 2026-05-03 22:12 | 61.36085 | 32.80139 | 38131 ft | 452 kts | 228° |
| 2026-05-03 22:12 | 61.31551 | 32.71069 | 38129 ft | 452 kts | 228° |
| 2026-05-03 22:13 | 61.27007 | 32.62016 | 38133 ft | 452 kts | 228° |
| 2026-05-03 22:13 | 61.23239 | 32.54400 | 38134 ft | 451 kts | 229° |
| 2026-05-03 22:14 | 61.18768 | 32.45252 | 38138 ft | 451 kts | 229° |
| 2026-05-03 22:14 | 61.14378 | 32.36317 | 38135 ft | 451 kts | 229° |
| 2026-05-03 22:15 | 61.09924 | 32.27313 | 38128 ft | 451 kts | 228° |
| 2026-05-03 22:15 | 61.05435 | 32.18276 | 38134 ft | 450 kts | 228° |
| 2026-05-03 22:16 | 61.00932 | 32.09262 | 38130 ft | 450 kts | 226° |
| 2026-05-03 22:16 | 60.98413 | 32.05382 | 38140 ft | 458 kts | 213° |
| 2026-05-03 22:16 | 60.95512 | 32.02685 | 38145 ft | 465 kts | 204° |
| 2026-05-03 22:16 | 60.92317 | 32.01009 | 38140 ft | 474 kts | 192° |
| 2026-05-03 22:17 | 60.89006 | 32.00603 | 38146 ft | 479 kts | 186° |
| 2026-05-03 22:17 | 60.82325 | 32.00398 | 38132 ft | 480 kts | 186° |
| 2026-05-03 22:18 | 60.75611 | 31.99888 | 38132 ft | 479 kts | 189° |
| 2026-05-03 22:18 | 60.69175 | 31.97527 | 38142 ft | 470 kts | 201° |
| 2026-05-03 22:19 | 60.63092 | 31.92900 | 38142 ft | 465 kts | 208° |
| 2026-05-03 22:19 | 60.57175 | 31.87596 | 38138 ft | 465 kts | 208° |
| 2026-05-03 22:20 | 60.51211 | 31.82303 | 38130 ft | 465 kts | 208° |
| 2026-05-03 22:20 | 60.45251 | 31.77096 | 38137 ft | 465 kts | 208° |
| 2026-05-03 22:21 | 60.39301 | 31.71937 | 38135 ft | 465 kts | 208° |
| 2026-05-03 22:21 | 60.33393 | 31.66833 | 38149 ft | 465 kts | 208° |
| 2026-05-03 22:22 | 60.27391 | 31.61664 | 38139 ft | 465 kts | 207° |
| 2026-05-03 22:22 | 60.21443 | 31.56562 | 38141 ft | 464 kts | 207° |
| 2026-05-03 22:23 | 60.15498 | 31.51484 | 38138 ft | 464 kts | 207° |
| 2026-05-03 22:23 | 60.09422 | 31.46991 | 38150 ft | 466 kts | 204° |
| 2026-05-03 22:24 | 60.03283 | 31.42675 | 38137 ft | 466 kts | 205° |
| 2026-05-03 22:24 | 59.97239 | 31.38052 | 38144 ft | 465 kts | 206° |
| 2026-05-03 22:25 | 59.91184 | 31.33406 | 38148 ft | 466 kts | 205° |
| 2026-05-03 22:25 | 59.85139 | 31.28790 | 38150 ft | 466 kts | 205° |
| 2026-05-03 22:26 | 59.79087 | 31.24158 | 38147 ft | 466 kts | 205° |
| 2026-05-03 22:26 | 59.73019 | 31.19533 | 38151 ft | 467 kts | 205° |
| 2026-05-03 22:27 | 59.66960 | 31.14933 | 38145 ft | 467 kts | 205° |
| 2026-05-03 22:27 | 59.60867 | 31.10199 | 38150 ft | 467 kts | 205° |
| 2026-05-03 22:28 | 59.54827 | 31.05483 | 38146 ft | 467 kts | 205° |
| 2026-05-03 22:28 | 59.48773 | 31.00790 | 38147 ft | 467 kts | 205° |
| 2026-05-03 22:29 | 59.42721 | 30.96124 | 38147 ft | 467 kts | 205° |
| 2026-05-03 22:29 | 59.36669 | 30.91475 | 38146 ft | 467 kts | 205° |
| 2026-05-03 22:30 | 59.30599 | 30.86853 | 38145 ft | 467 kts | 204° |
| 2026-05-03 22:30 | 59.24434 | 30.82498 | 38147 ft | 468 kts | 203° |
| 2026-05-03 22:31 | 59.18331 | 30.78307 | 38149 ft | 468 kts | 203° |
| 2026-05-03 22:31 | 59.12181 | 30.74065 | 38146 ft | 468 kts | 203° |
| 2026-05-03 22:32 | 59.06052 | 30.69822 | 38142 ft | 468 kts | 203° |
| 2026-05-03 22:32 | 58.99881 | 30.65558 | 38164 ft | 468 kts | 203° |
| 2026-05-03 22:33 | 58.93724 | 30.61322 | 38145 ft | 469 kts | 203° |
| 2026-05-03 22:33 | 58.87583 | 30.57114 | 38144 ft | 469 kts | 203° |
| 2026-05-03 22:34 | 58.81423 | 30.52910 | 38137 ft | 469 kts | 203° |
| 2026-05-03 22:34 | 58.75298 | 30.48744 | 38150 ft | 470 kts | 203° |
| 2026-05-03 22:35 | 58.69091 | 30.44539 | 38152 ft | 470 kts | 203° |
| 2026-05-03 22:35 | 58.62909 | 30.40366 | 38152 ft | 470 kts | 203° |
| 2026-05-03 22:36 | 58.56736 | 30.36214 | 38144 ft | 471 kts | 202° |
| 2026-05-03 22:36 | 58.50578 | 30.32087 | 38146 ft | 471 kts | 202° |
| 2026-05-03 22:37 | 58.44329 | 30.28196 | 38145 ft | 473 kts | 200° |
| 2026-05-03 22:37 | 58.37974 | 30.24505 | 38145 ft | 473 kts | 200° |
| 2026-05-03 22:38 | 58.31683 | 30.20844 | 38146 ft | 473 kts | 200° |
| 2026-05-03 22:38 | 58.25381 | 30.17144 | 38145 ft | 474 kts | 200° |
| 2026-05-03 22:39 | 58.19114 | 30.13461 | 38145 ft | 474 kts | 200° |
| 2026-05-03 22:39 | 58.12803 | 30.09765 | 38143 ft | 475 kts | 200° |
| 2026-05-03 22:40 | 58.06435 | 30.06052 | 38140 ft | 475 kts | 200° |
| 2026-05-03 22:40 | 58.00116 | 30.02382 | 38148 ft | 475 kts | 200° |
| 2026-05-03 22:41 | 57.93837 | 29.98749 | 38141 ft | 475 kts | 200° |
| 2026-05-03 22:41 | 57.87530 | 29.95113 | 38141 ft | 475 kts | 200° |
| 2026-05-03 22:42 | 57.81190 | 29.91471 | 38147 ft | 475 kts | 200° |
| 2026-05-03 22:42 | 57.74865 | 29.87851 | 38147 ft | 475 kts | 200° |
| 2026-05-03 22:43 | 57.69596 | 29.84846 | 38146 ft | 475 kts | 200° |
| 2026-05-03 22:43 | 57.63273 | 29.81251 | 38152 ft | 476 kts | 200° |
| 2026-05-03 22:44 | 57.56934 | 29.77660 | 38155 ft | 476 kts | 200° |
| 2026-05-03 22:44 | 57.50592 | 29.74080 | 38159 ft | 476 kts | 200° |
| 2026-05-03 22:45 | 57.44251 | 29.70513 | 38157 ft | 476 kts | 199° |
| 2026-05-03 22:45 | 57.37903 | 29.66957 | 38159 ft | 476 kts | 199° |
| 2026-05-03 22:46 | 57.31507 | 29.63389 | 38162 ft | 477 kts | 199° |
| 2026-05-03 22:46 | 57.25188 | 29.59877 | 38167 ft | 477 kts | 199° |
| 2026-05-03 22:47 | 57.18841 | 29.56360 | 38167 ft | 477 kts | 199° |
| 2026-05-03 22:47 | 57.12484 | 29.52849 | 38177 ft | 477 kts | 199° |
| 2026-05-03 22:48 | 57.06104 | 29.49338 | 38182 ft | 477 kts | 199° |
| 2026-05-03 22:48 | 56.99726 | 29.45841 | 38185 ft | 478 kts | 199° |
| 2026-05-03 22:49 | 56.93353 | 29.42360 | 38187 ft | 478 kts | 199° |
| 2026-05-03 22:49 | 56.86976 | 29.38888 | 38189 ft | 478 kts | 199° |
| 2026-05-03 22:50 | 56.80595 | 29.35427 | 38192 ft | 478 kts | 199° |
| 2026-05-03 22:50 | 56.74218 | 29.31979 | 38200 ft | 478 kts | 199° |
| 2026-05-03 22:51 | 56.67832 | 29.28540 | 38198 ft | 479 kts | 198° |
| 2026-05-03 22:51 | 56.61432 | 29.25105 | 38203 ft | 479 kts | 198° |
| 2026-05-03 22:52 | 56.55044 | 29.21688 | 38205 ft | 479 kts | 198° |
| 2026-05-03 22:52 | 56.48634 | 29.18272 | 38205 ft | 480 kts | 198° |
| 2026-05-03 22:53 | 56.42228 | 29.14869 | 38207 ft | 480 kts | 198° |
| 2026-05-03 22:53 | 56.35847 | 29.11490 | 38214 ft | 480 kts | 198° |
| 2026-05-03 22:54 | 56.29404 | 29.08278 | 38215 ft | 482 kts | 193° |
| 2026-05-03 22:54 | 56.22733 | 29.06914 | 38210 ft | 485 kts | 182° |
| 2026-05-03 22:55 | 56.15966 | 29.06767 | 38218 ft | 486 kts | 182° |
| 2026-05-03 22:55 | 56.09210 | 29.06557 | 38221 ft | 486 kts | 182° |
| 2026-05-03 22:56 | 56.02440 | 29.06219 | 38224 ft | 486 kts | 185° |
| 2026-05-03 22:56 | 55.95709 | 29.05047 | 38228 ft | 486 kts | 187° |
| 2026-05-03 22:57 | 55.88968 | 29.03760 | 38223 ft | 487 kts | 187° |
| 2026-05-03 22:57 | 55.82219 | 29.02510 | 38230 ft | 487 kts | 187° |
| 2026-05-03 22:58 | 55.76337 | 29.01447 | 38233 ft | 488 kts | 187° |
| 2026-05-03 22:58 | 55.69756 | 29.00269 | 38237 ft | 488 kts | 187° |
| 2026-05-03 22:59 | 55.63002 | 28.99062 | 38233 ft | 488 kts | 187° |
| 2026-05-03 22:59 | 55.56234 | 28.97855 | 38235 ft | 489 kts | 187° |
| 2026-05-03 23:00 | 55.49470 | 28.96655 | 38243 ft | 488 kts | 188° |
| 2026-05-03 23:00 | 55.42711 | 28.95456 | 38230 ft | 488 kts | 188° |
| 2026-05-03 23:01 | 55.35952 | 28.94263 | 38231 ft | 487 kts | 188° |
| 2026-05-03 23:01 | 55.29217 | 28.93077 | 38239 ft | 486 kts | 188° |
| 2026-05-03 23:02 | 55.22487 | 28.91936 | 38244 ft | 486 kts | 187° |
| 2026-05-03 23:02 | 55.15738 | 28.90898 | 38244 ft | 486 kts | 187° |
| 2026-05-03 23:03 | 55.09004 | 28.89869 | 38247 ft | 486 kts | 187° |
| 2026-05-03 23:03 | 55.02251 | 28.88825 | 38248 ft | 486 kts | 187° |
| 2026-05-03 23:04 | 54.95520 | 28.87782 | 38247 ft | 486 kts | 187° |
| 2026-05-03 23:04 | 54.88927 | 28.86765 | 38257 ft | 486 kts | 186° |
| 2026-05-03 23:05 | 54.82197 | 28.85731 | 38198 ft | 482 kts | 186° |
| 2026-05-03 23:05 | 54.78978 | 28.85238 | 37834 ft | 475 kts | 186° |
| 2026-05-03 23:05 | 54.75924 | 28.84770 | 37078 ft | 477 kts | 186° |
| 2026-05-03 23:05 | 54.72652 | 28.84266 | 36094 ft | 483 kts | 186° |
| 2026-05-03 23:06 | 54.69341 | 28.83757 | 35096 ft | 489 kts | 186° |
| 2026-05-03 23:06 | 54.66184 | 28.83273 | 34207 ft | 494 kts | 186° |
| 2026-05-03 23:06 | 54.62850 | 28.82764 | 33238 ft | 497 kts | 186° |
| 2026-05-03 23:06 | 54.59290 | 28.82223 | 32265 ft | 497 kts | 186° |
| 2026-05-03 23:07 | 54.55898 | 28.81708 | 31403 ft | 497 kts | 186° |
| 2026-05-03 23:07 | 54.52518 | 28.81195 | 30500 ft | 496 kts | 186° |
| 2026-05-03 23:07 | 54.49088 | 28.80675 | 29690 ft | 493 kts | 186° |
| 2026-05-03 23:07 | 54.45738 | 28.80169 | 29039 ft | 485 kts | 186° |
| 2026-05-03 23:08 | 54.42398 | 28.79666 | 28441 ft | 478 kts | 186° |
| 2026-05-03 23:08 | 54.39115 | 28.79174 | 27806 ft | 472 kts | 186° |
| 2026-05-03 23:08 | 54.35854 | 28.78687 | 27149 ft | 467 kts | 186° |
| 2026-05-03 23:08 | 54.32640 | 28.78207 | 26502 ft | 463 kts | 186° |
| 2026-05-03 23:09 | 54.29443 | 28.77732 | 25888 ft | 458 kts | 186° |
| 2026-05-03 23:09 | 54.26285 | 28.77263 | 25274 ft | 454 kts | 186° |
| 2026-05-03 23:09 | 54.23150 | 28.76798 | 24695 ft | 449 kts | 186° |
| 2026-05-03 23:09 | 54.20055 | 28.76340 | 24129 ft | 445 kts | 185° |
| 2026-05-03 23:10 | 54.16980 | 28.75885 | 23632 ft | 443 kts | 185° |
| 2026-05-03 23:10 | 54.13906 | 28.75431 | 23270 ft | 442 kts | 185° |
| 2026-05-03 23:10 | 54.10848 | 28.74981 | 22992 ft | 439 kts | 185° |
| 2026-05-03 23:10 | 54.07814 | 28.74536 | 22720 ft | 436 kts | 186° |
| 2026-05-03 23:11 | 54.04804 | 28.74095 | 22406 ft | 434 kts | 186° |
| 2026-05-03 23:11 | 54.01794 | 28.73655 | 22076 ft | 433 kts | 186° |
| 2026-05-03 23:11 | 53.98827 | 28.73223 | 21748 ft | 432 kts | 186° |
| 2026-05-03 23:11 | 53.95835 | 28.72788 | 21435 ft | 431 kts | 186° |
| 2026-05-03 23:12 | 53.92825 | 28.72203 | 21117 ft | 428 kts | 192° |
| 2026-05-03 23:12 | 53.89998 | 28.70860 | 20788 ft | 427 kts | 202° |
| 2026-05-03 23:12 | 53.87308 | 28.68641 | 20507 ft | 424 kts | 212° |
| 2026-05-03 23:12 | 53.84942 | 28.65695 | 20240 ft | 420 kts | 223° |
| 2026-05-03 23:13 | 53.82970 | 28.62168 | 19994 ft | 417 kts | 233° |
| 2026-05-03 23:13 | 53.81400 | 28.58091 | 19742 ft | 413 kts | 244° |
| 2026-05-03 23:13 | 53.80969 | 28.56602 | 19658 ft | 412 kts | 247° |
| 2026-05-03 23:14 | 53.80472 | 28.54502 | 19561 ft | 410 kts | 252° |
| 2026-05-03 23:14 | 53.79781 | 28.49835 | 19315 ft | 407 kts | 263° |
| 2026-05-03 23:14 | 53.79613 | 28.45105 | 19085 ft | 403 kts | 273° |
| 2026-05-03 23:14 | 53.79968 | 28.40418 | 18861 ft | 400 kts | 284° |
| 2026-05-03 23:15 | 53.80735 | 28.35891 | 18657 ft | 398 kts | 289° |
| 2026-05-03 23:15 | 53.81635 | 28.31487 | 18444 ft | 396 kts | 290° |
| 2026-05-03 23:15 | 53.82571 | 28.27119 | 18222 ft | 395 kts | 290° |
| 2026-05-03 23:15 | 53.83517 | 28.22749 | 17980 ft | 393 kts | 291° |
| 2026-05-03 23:16 | 53.84620 | 28.18530 | 17747 ft | 391 kts | 300° |
| 2026-05-03 23:16 | 53.86162 | 28.14769 | 17510 ft | 389 kts | 310° |
| 2026-05-03 23:16 | 53.88104 | 28.11580 | 17213 ft | 389 kts | 321° |
| 2026-05-03 23:16 | 53.90365 | 28.09081 | 16820 ft | 389 kts | 332° |
| 2026-05-03 23:17 | 53.92898 | 28.07357 | 16421 ft | 387 kts | 342° |
| 2026-05-03 23:17 | 53.95535 | 28.06520 | 16041 ft | 386 kts | 353° |
| 2026-05-03 23:17 | 53.97320 | 28.06454 | 15789 ft | 386 kts | 0° |
| 2026-05-03 23:17 | 53.99978 | 28.07094 | 15416 ft | 387 kts | 11° |
| 2026-05-03 23:18 | 54.02545 | 28.08623 | 15047 ft | 388 kts | 22° |
| 2026-05-03 23:18 | 54.04875 | 28.10957 | 14678 ft | 390 kts | 33° |
| 2026-05-03 23:18 | 54.06905 | 28.14023 | 14321 ft | 392 kts | 44° |
| 2026-05-03 23:18 | 54.08644 | 28.17522 | 13978 ft | 392 kts | 49° |
| 2026-05-03 23:19 | 54.10306 | 28.21197 | 13599 ft | 391 kts | 51° |
| 2026-05-03 23:19 | 54.11777 | 28.25120 | 13195 ft | 392 kts | 60° |
| 2026-05-03 23:19 | 54.12988 | 28.29272 | 12815 ft | 392 kts | 63° |
| 2026-05-03 23:19 | 54.14132 | 28.33485 | 12426 ft | 391 kts | 64° |
| 2026-05-03 23:20 | 54.15261 | 28.37696 | 12042 ft | 389 kts | 64° |
| 2026-05-03 23:20 | 54.16339 | 28.41924 | 11655 ft | 388 kts | 68° |
| 2026-05-03 23:20 | 54.17169 | 28.46307 | 11282 ft | 386 kts | 72° |
| 2026-05-03 23:20 | 54.17893 | 28.50708 | 10916 ft | 385 kts | 73° |
| 2026-05-03 23:21 | 54.18596 | 28.55106 | 10548 ft | 382 kts | 74° |
| 2026-05-03 23:21 | 54.19291 | 28.59471 | 10187 ft | 380 kts | 74° |
| 2026-05-03 23:21 | 54.19981 | 28.63811 | 9832 ft | 378 kts | 74° |
| 2026-05-03 23:21 | 54.20670 | 28.68139 | 9435 ft | 375 kts | 74° |
| 2026-05-03 23:22 | 54.22026 | 28.76680 | 8657 ft | 370 kts | 74° |
| 2026-05-03 23:22 | 54.22693 | 28.80903 | 8284 ft | 367 kts | 74° |
| 2026-05-03 23:22 | 54.23196 | 28.84101 | 7981 ft | 365 kts | 74° |
| 2026-05-03 23:23 | 54.23261 | 28.84519 | 7953 ft | 365 kts | 74° |
| 2026-05-03 23:23 | 54.23826 | 28.88124 | 7626 ft | 363 kts | 74° |
| 2026-05-03 23:23 | 54.24475 | 28.92286 | 7260 ft | 360 kts | 74° |
| 2026-05-03 23:23 | 54.25344 | 28.96180 | 6854 ft | 347 kts | 56° |
| 2026-05-03 23:24 | 54.25720 | 28.97069 | 6741 ft | 344 kts | 48° |
| 2026-05-03 23:24 | 54.27334 | 28.99253 | 6426 ft | 335 kts | 24° |
| 2026-05-03 23:24 | 54.29554 | 29.00068 | 6052 ft | 325 kts | 355° |
| 2026-05-03 23:24 | 54.31672 | 28.98995 | 5671 ft | 315 kts | 328° |
| 2026-05-03 23:25 | 54.33425 | 28.96889 | 5328 ft | 304 kts | 323° |
| 2026-05-03 23:25 | 54.35153 | 28.94838 | 5003 ft | 300 kts | 324° |
| 2026-05-03 23:25 | 54.36672 | 28.92544 | 4968 ft | 279 kts | 308° |
| 2026-05-03 23:25 | 54.37744 | 28.89888 | 4959 ft | 264 kts | 301° |
| 2026-05-03 23:26 | 54.38675 | 28.87274 | 4949 ft | 250 kts | 301° |
| 2026-05-03 23:26 | 54.39519 | 28.84910 | 4950 ft | 237 kts | 301° |
| 2026-05-03 23:26 | 54.40332 | 28.82672 | 4949 ft | 226 kts | 301° |
| 2026-05-03 23:26 | 54.41187 | 28.80349 | 4970 ft | 232 kts | 301° |
| 2026-05-03 23:27 | 54.42049 | 28.78031 | 4958 ft | 229 kts | 302° |
| 2026-05-03 23:27 | 54.42901 | 28.75755 | 4960 ft | 224 kts | 302° |
| 2026-05-03 23:27 | 54.43747 | 28.73505 | 4964 ft | 224 kts | 302° |
| 2026-05-03 23:27 | 54.44597 | 28.71249 | 4976 ft | 225 kts | 302° |
| 2026-05-03 23:28 | 54.45392 | 28.69142 | 4975 ft | 226 kts | 302° |
| 2026-05-03 23:28 | 54.46255 | 28.66857 | 4979 ft | 227 kts | 302° |
| 2026-05-03 23:28 | 54.47116 | 28.64580 | 4977 ft | 228 kts | 302° |
| 2026-05-03 23:28 | 54.47983 | 28.62286 | 4975 ft | 228 kts | 302° |
| 2026-05-03 23:29 | 54.48847 | 28.59997 | 4972 ft | 228 kts | 302° |
| 2026-05-03 23:29 | 54.49710 | 28.57710 | 4971 ft | 228 kts | 302° |
| 2026-05-03 23:29 | 54.50536 | 28.55401 | 4949 ft | 223 kts | 292° |
| 2026-05-03 23:29 | 54.50750 | 28.52855 | 4972 ft | 220 kts | 261° |
| 2026-05-03 23:30 | 54.50203 | 28.50380 | 4981 ft | 227 kts | 239° |
| 2026-05-03 23:30 | 54.49117 | 28.48362 | 4982 ft | 233 kts | 223° |
| 2026-05-03 23:30 | 54.47843 | 28.46645 | 4972 ft | 233 kts | 220° |
| 2026-05-03 23:30 | 54.46541 | 28.44973 | 4970 ft | 232 kts | 219° |
| 2026-05-03 23:31 | 54.45246 | 28.43314 | 4966 ft | 232 kts | 219° |
| 2026-05-03 23:31 | 54.43956 | 28.41655 | 4964 ft | 231 kts | 220° |
| 2026-05-03 23:31 | 54.42679 | 28.40003 | 4968 ft | 230 kts | 220° |
| 2026-05-03 23:31 | 54.41405 | 28.38347 | 4974 ft | 230 kts | 220° |
| 2026-05-03 23:32 | 54.40130 | 28.36685 | 4976 ft | 230 kts | 220° |
| 2026-05-03 23:32 | 54.38883 | 28.35056 | 4976 ft | 230 kts | 220° |
| 2026-05-03 23:32 | 54.37609 | 28.33389 | 4975 ft | 230 kts | 220° |
| 2026-05-03 23:32 | 54.36392 | 28.31795 | 4980 ft | 231 kts | 220° |
| 2026-05-03 23:33 | 54.35112 | 28.30119 | 4980 ft | 231 kts | 220° |
| 2026-05-03 23:33 | 54.33833 | 28.28443 | 4974 ft | 232 kts | 220° |
| 2026-05-03 23:33 | 54.32546 | 28.26757 | 4978 ft | 233 kts | 220° |
| 2026-05-03 23:33 | 54.31261 | 28.25074 | 4980 ft | 233 kts | 220° |
| 2026-05-03 23:34 | 54.29987 | 28.23408 | 4978 ft | 233 kts | 220° |
| 2026-05-03 23:34 | 54.28701 | 28.21726 | 4977 ft | 233 kts | 220° |
| 2026-05-03 23:34 | 54.27414 | 28.20043 | 4979 ft | 233 kts | 220° |
| 2026-05-03 23:34 | 54.26127 | 28.18362 | 4984 ft | 232 kts | 220° |
| 2026-05-03 23:35 | 54.24841 | 28.16683 | 4978 ft | 232 kts | 220° |
| 2026-05-03 23:35 | 54.23557 | 28.15010 | 4981 ft | 232 kts | 220° |
| 2026-05-03 23:35 | 54.22272 | 28.13336 | 4981 ft | 231 kts | 220° |
| 2026-05-03 23:35 | 54.20997 | 28.11677 | 4984 ft | 231 kts | 220° |
| 2026-05-03 23:36 | 54.19713 | 28.10007 | 4988 ft | 231 kts | 220° |
| 2026-05-03 23:36 | 54.18402 | 28.08444 | 4970 ft | 229 kts | 207° |
| 2026-05-03 23:36 | 54.16834 | 28.08060 | 5003 ft | 239 kts | 174° |
| 2026-05-03 23:36 | 54.15166 | 28.08755 | 4998 ft | 247 kts | 166° |
| 2026-05-03 23:37 | 54.13523 | 28.09574 | 4987 ft | 246 kts | 166° |
| 2026-05-03 23:37 | 54.11886 | 28.10396 | 4981 ft | 244 kts | 166° |
| 2026-05-03 23:37 | 54.10261 | 28.11210 | 4979 ft | 242 kts | 166° |
| 2026-05-03 23:37 | 54.08759 | 28.11957 | 4984 ft | 240 kts | 166° |
| 2026-05-03 23:38 | 54.07158 | 28.12748 | 4985 ft | 239 kts | 166° |
| 2026-05-03 23:38 | 54.05561 | 28.13532 | 4991 ft | 239 kts | 166° |
| 2026-05-03 23:38 | 54.03955 | 28.14317 | 4994 ft | 240 kts | 166° |
| 2026-05-03 23:38 | 54.02346 | 28.15101 | 4994 ft | 241 kts | 166° |
| 2026-05-03 23:39 | 54.00728 | 28.15889 | 5002 ft | 243 kts | 166° |
| 2026-05-03 23:39 | 53.99110 | 28.16730 | 4990 ft | 242 kts | 158° |
| 2026-05-03 23:39 | 53.97709 | 28.18311 | 5003 ft | 243 kts | 143° |
| 2026-05-03 23:39 | 53.96225 | 28.19635 | 4991 ft | 244 kts | 172° |
| 2026-05-03 23:40 | 53.94715 | 28.19531 | 4999 ft | 240 kts | 202° |
| 2026-05-03 23:40 | 53.93471 | 28.18235 | 5002 ft | 234 kts | 229° |
| 2026-05-03 23:40 | 53.92439 | 28.16208 | 4999 ft | 231 kts | 232° |
| 2026-05-03 23:40 | 53.91433 | 28.14199 | 5000 ft | 233 kts | 232° |
| 2026-05-03 23:41 | 53.90379 | 28.12098 | 5003 ft | 234 kts | 232° |
| 2026-05-03 23:41 | 53.89390 | 28.10122 | 4988 ft | 229 kts | 232° |
| 2026-05-03 23:41 | 53.88400 | 28.08052 | 4961 ft | 211 kts | 242° |
| 2026-05-03 23:41 | 53.87949 | 28.05923 | 5013 ft | 207 kts | 256° |
| 2026-05-03 23:42 | 53.87211 | 28.03772 | 4997 ft | 220 kts | 223° |
| 2026-05-03 23:42 | 53.85826 | 28.02640 | 5001 ft | 227 kts | 192° |
| 2026-05-03 23:42 | 53.84247 | 28.02399 | 5001 ft | 229 kts | 185° |
| 2026-05-03 23:42 | 53.82657 | 28.02498 | 4990 ft | 229 kts | 173° |
| 2026-05-03 23:43 | 53.81116 | 28.03034 | 4997 ft | 230 kts | 169° |
| 2026-05-03 23:43 | 53.79555 | 28.03650 | 4993 ft | 231 kts | 169° |
| 2026-05-03 23:43 | 53.77987 | 28.04274 | 4943 ft | 231 kts | 169° |
| 2026-05-03 23:43 | 53.76411 | 28.04907 | 4736 ft | 234 kts | 169° |
| 2026-05-03 23:44 | 53.74850 | 28.05537 | 4502 ft | 232 kts | 169° |
| 2026-05-03 23:44 | 53.73305 | 28.06222 | 4249 ft | 227 kts | 159° |
| 2026-05-03 23:44 | 53.71913 | 28.07471 | 4021 ft | 226 kts | 150° |
| 2026-05-03 23:44 | 53.70580 | 28.08887 | 3804 ft | 227 kts | 149° |
| 2026-05-03 23:45 | 53.69246 | 28.10321 | 3591 ft | 228 kts | 149° |
| 2026-05-03 23:45 | 53.67901 | 28.11773 | 3385 ft | 230 kts | 149° |
| 2026-05-03 23:45 | 53.66559 | 28.13225 | 3170 ft | 229 kts | 149° |
| 2026-05-03 23:45 | 53.65237 | 28.14659 | 3060 ft | 222 kts | 149° |
| 2026-05-03 23:46 | 53.63944 | 28.16063 | 3018 ft | 223 kts | 149° |
| 2026-05-03 23:46 | 53.62626 | 28.17490 | 3008 ft | 227 kts | 149° |
| 2026-05-03 23:46 | 53.61338 | 28.19027 | 3001 ft | 229 kts | 141° |
| 2026-05-03 23:46 | 53.60137 | 28.20794 | 3005 ft | 229 kts | 139° |
| 2026-05-03 23:47 | 53.59023 | 28.22677 | 2984 ft | 226 kts | 122° |
| 2026-05-03 23:47 | 53.58565 | 28.25141 | 3003 ft | 223 kts | 86° |
| 2026-05-03 23:47 | 53.58997 | 28.27621 | 3020 ft | 223 kts | 52° |
| 2026-05-03 23:47 | 53.60137 | 28.29294 | 3005 ft | 217 kts | 24° |
| 2026-05-03 23:48 | 53.61511 | 28.30359 | 3016 ft | 218 kts | 20° |
| 2026-05-03 23:48 | 53.62909 | 28.31337 | 3037 ft | 215 kts | 19° |
| 2026-05-03 23:48 | 53.64249 | 28.32270 | 2983 ft | 199 kts | 19° |
| 2026-05-03 23:48 | 53.65441 | 28.33111 | 3005 ft | 175 kts | 19° |
| 2026-05-03 23:49 | 53.66510 | 28.33882 | 2974 ft | 159 kts | 19° |
| 2026-05-03 23:49 | 53.67491 | 28.34599 | 2993 ft | 151 kts | 18° |
| 2026-05-03 23:49 | 53.68489 | 28.34864 | 2982 ft | 145 kts | 340° |
| 2026-05-03 23:49 | 53.69295 | 28.33999 | 3020 ft | 145 kts | 321° |
| 2026-05-03 23:50 | 53.70091 | 28.33116 | 2999 ft | 147 kts | 325° |
| 2026-05-03 23:50 | 53.70651 | 28.32458 | 2987 ft | 143 kts | 321° |
| 2026-05-03 23:50 | 53.71672 | 28.31083 | 3002 ft | 141 kts | 319° |
| 2026-05-03 23:50 | 53.72428 | 28.30011 | 3002 ft | 142 kts | 318° |
| 2026-05-03 23:51 | 53.73175 | 28.28934 | 2989 ft | 140 kts | 317° |
| 2026-05-03 23:51 | 53.73908 | 28.27865 | 2985 ft | 139 kts | 317° |
| 2026-05-03 23:51 | 53.74635 | 28.26799 | 2987 ft | 138 kts | 317° |
| 2026-05-03 23:51 | 53.75362 | 28.25731 | 2998 ft | 140 kts | 317° |
| 2026-05-03 23:52 | 53.76100 | 28.24645 | 3006 ft | 142 kts | 317° |
| 2026-05-03 23:52 | 53.76845 | 28.23547 | 3006 ft | 143 kts | 317° |
| 2026-05-03 23:52 | 53.77591 | 28.22448 | 3002 ft | 144 kts | 317° |
| 2026-05-03 23:52 | 53.78343 | 28.21339 | 2980 ft | 143 kts | 317° |
| 2026-05-03 23:53 | 53.79096 | 28.20228 | 2846 ft | 143 kts | 317° |
| 2026-05-03 23:53 | 53.79841 | 28.19129 | 2696 ft | 141 kts | 316° |
| 2026-05-03 23:53 | 53.80575 | 28.18046 | 2527 ft | 139 kts | 316° |
| 2026-05-03 23:53 | 53.81303 | 28.16971 | 2395 ft | 139 kts | 316° |
| 2026-05-03 23:54 | 53.82033 | 28.15893 | 2241 ft | 139 kts | 316° |
| 2026-05-03 23:54 | 53.82765 | 28.14811 | 2067 ft | 139 kts | 316° |
| 2026-05-03 23:54 | 53.83493 | 28.13736 | 1879 ft | 138 kts | 316° |
| 2026-05-03 23:54 | 53.84211 | 28.12673 | 1709 ft | 137 kts | 316° |
| 2026-05-03 23:55 | 53.84933 | 28.11604 | 1516 ft | 139 kts | 316° |
| 2026-05-03 23:55 | 53.85655 | 28.10494 | 1310 ft | 142 kts | 315° |
| 2026-05-03 23:55 | 53.86381 | 28.09351 | 1100 ft | 142 kts | 319° |
| 2026-05-03 23:55 | 53.87130 | 28.08265 | 912 ft | 142 kts | 320° |
| 2026-05-03 23:56 | 53.87893 | 28.07204 | 726 ft | 141 kts | 318° |
| 2026-05-03 23:56 | 53.88626 | 28.06163 | 644 ft | 127 kts | 320° |
| 2026-05-03 23:56 | 53.89019 | 28.05542 | 642 ft | 101 kts | 318° |
| 2026-05-03 23:56 | 53.89466 | 28.04896 | 644 ft | 49 kts | 319° |
| 2026-05-03 23:57 | 53.89640 | 28.04634 | 643 ft | 50 kts | 318° |
| 2026-05-03 23:57 | 53.89768 | 28.04247 | 640 ft | 5 kts | 286° |
| 2026-05-03 23:57 | 53.89764 | 28.04184 | 640 ft | 6 kts | 245° |
| 2026-05-03 23:57 | 53.89729 | 28.04149 | 643 ft | 6 kts | 184° |
| 2026-05-03 23:58 | 53.89671 | 28.04188 | 643 ft | 13 kts | 147° |
| 2026-05-03 23:58 | 53.89578 | 28.04321 | 649 ft | 22 kts | 138° |
| 2026-05-03 23:58 | 53.89439 | 28.04529 | 644 ft | 30 kts | 139° |
| 2026-05-03 23:58 | 53.89343 | 28.04649 | 644 ft | 12 kts | 160° |
| 2026-05-03 23:59 | 53.89291 | 28.04592 | 645 ft | 12 kts | 232° |
| 2026-05-03 23:59 | 53.89221 | 28.04438 | 645 ft | 21 kts | 232° |
| 2026-05-03 23:59 | 53.89087 | 28.04396 | 644 ft | 21 kts | 195° |
| 2026-05-03 23:59 | 53.88972 | 28.04195 | 645 ft | 28 kts | 230° |
| 2026-05-04 00:00 | 53.88871 | 28.03975 | 645 ft | 19 kts | 262° |
| 2026-05-04 00:00 | 53.88931 | 28.03770 | 642 ft | 18 kts | 282° |
| 2026-05-04 00:00 | 53.88897 | 28.03607 | 645 ft | 15 kts | 206° |
| 2026-05-04 00:00 | 53.88803 | 28.03453 | 645 ft | 23 kts | 246° |
| 2026-05-04 00:01 | 53.88795 | 28.03221 | 643 ft | 18 kts | 283° |
| 2026-05-04 00:01 | 53.88832 | 28.03120 | 647 ft | 8 kts | 357° |
| 2026-05-04 00:01 | 53.88865 | 28.03140 | 644 ft | 0 kts | 24° |